Time;durP1;ratioP1;P1;durP2;ratioP2;P2;SDS_P1;SDS_P2;PMS_P1;PMS_P2;Temp;Humidity;BMP_temperature;BMP_pressure;BME280_temperature;BME280_humidity;BME280_pressure;Samples;Min_cycle;Max_cycle;Signal;HPM_P1;HPM_P2
2021/11/28 00:01:44;;;;;;;6.20;2.88;;;;;;;2.22;81.46;94254.38;5088454;28;20419;-73
2021/11/28 00:04:13;;;;;;;5.47;3.00;;;;;;;2.20;81.62;94241.28;5088630;28;20499;-73
2021/11/28 00:06:43;;;;;;;4.70;2.92;;;;;;;2.23;81.88;94248.69;5088182;28;20131;-74
2021/11/28 00:09:30;;;;;;;6.07;2.83;;;;;;;2.22;81.51;94239.06;5089236;28;20040;-72
2021/11/28 00:12:10;;;;;;;5.50;3.00;;;;;;;2.23;81.48;94243.31;5088200;28;20126;-73
2021/11/28 00:14:37;;;;;;;4.75;3.00;;;;;;;2.22;81.68;94238.28;5088441;28;20055;-73
2021/11/28 00:17:05;;;;;;;5.43;2.78;;;;;;;2.22;81.69;94230.22;5088245;28;20052;-73
2021/11/28 00:19:31;;;;;;;5.35;3.40;;;;;;;2.23;81.67;94229.88;5088297;28;20047;-73
2021/11/28 00:21:58;;;;;;;4.80;3.17;;;;;;;2.25;81.71;94238.44;5088793;28;20044;-73
2021/11/28 00:24:26;;;;;;;6.00;3.30;;;;;;;2.25;81.71;94229.59;5087444;28;20055;-73
2021/11/28 00:26:52;;;;;;;4.90;2.90;;;;;;;2.27;81.80;94230.06;5088689;28;20792;-73
2021/11/28 00:29:19;;;;;;;6.10;3.28;;;;;;;2.28;81.73;94232.41;5087121;28;20047;-73
2021/11/28 00:31:45;;;;;;;5.22;3.03;;;;;;;2.27;81.56;94230.84;5088932;28;20051;-73
2021/11/28 00:34:12;;;;;;;4.68;2.75;;;;;;;2.26;81.59;94233.84;5087222;28;20048;-73
2021/11/28 00:36:38;;;;;;;8.93;4.15;;;;;;;2.27;81.61;94224.69;5088404;28;20044;-73
2021/11/28 00:39:05;;;;;;;5.07;3.03;;;;;;;2.27;81.60;94225.47;5087361;28;20048;-73
2021/11/28 00:41:33;;;;;;;6.40;3.25;;;;;;;2.27;81.47;94233.53;5088017;28;20130;-73
2021/11/28 00:43:59;;;;;;;4.68;2.92;;;;;;;2.28;81.23;94227.03;5088209;28;20055;-73
2021/11/28 00:46:26;;;;;;;4.13;2.90;;;;;;;2.28;81.18;94227.03;5086645;28;20047;-73
2021/11/28 00:48:52;;;;;;;6.75;3.45;;;;;;;2.31;80.57;94221.06;5088047;28;20064;-73
2021/11/28 00:51:33;;;;;;;7.72;3.40;;;;;;;2.28;80.30;94234.31;5086741;28;20121;-73
2021/11/28 00:53:59;;;;;;;7.28;3.72;;;;;;;2.20;80.61;94235.91;5087711;28;20048;-73
2021/11/28 00:56:26;;;;;;;8.23;3.40;;;;;;;2.16;81.01;94234.97;5086777;28;20048;-73
2021/11/28 00:58:54;;;;;;;4.03;2.78;;;;;;;2.16;80.93;94239.53;5088101;28;20047;-73
2021/11/28 01:01:21;;;;;;;5.20;2.78;;;;;;;2.15;80.99;94237.97;5086966;28;20047;-73
2021/11/28 01:03:47;;;;;;;4.60;2.88;;;;;;;2.14;81.06;94231.81;5087834;28;20051;-73
2021/11/28 01:06:14;;;;;;;4.60;2.83;;;;;;;2.18;81.47;94227.38;5087277;28;20419;-73
2021/11/28 01:08:41;;;;;;;6.10;3.33;;;;;;;2.19;81.59;94236.19;5087238;28;20044;-73
2021/11/28 01:11:07;;;;;;;6.57;3.30;;;;;;;2.20;81.49;94246.66;5087422;28;20499;-73
2021/11/28 01:13:34;;;;;;;5.50;3.45;;;;;;;2.22;81.74;94241.75;5088137;28;20051;-73
2021/11/28 01:16:01;;;;;;;5.97;3.28;;;;;;;2.27;81.76;94241.59;5087918;28;20529;-73
2021/11/28 01:18:28;;;;;;;4.03;2.63;;;;;;;2.31;81.89;94237.16;5086882;28;20047;-73
2021/11/28 01:20:55;;;;;;;6.30;3.10;;;;;;;2.37;80.77;94245.06;5087955;28;20043;-73
2021/11/28 01:23:21;;;;;;;4.38;2.33;;;;;;;2.31;79.92;94245.22;5086656;28;20058;-73
2021/11/28 01:25:48;;;;;;;4.00;2.50;;;;;;;2.28;79.76;94237.78;5087467;28;20048;-73
2021/11/28 01:28:14;;;;;;;4.78;2.42;;;;;;;2.24;79.40;94242.19;5086820;28;20044;-73
2021/11/28 01:30:41;;;;;;;6.18;2.47;;;;;;;2.20;79.42;94243.97;5086985;28;20051;-73
2021/11/28 01:33:08;;;;;;;5.68;2.60;;;;;;;2.14;79.43;94247.91;5087159;28;20044;-73
2021/11/28 01:35:36;;;;;;;6.25;2.83;;;;;;;2.08;80.01;94243.78;5086943;28;20044;-73
2021/11/28 01:38:03;;;;;;;6.88;2.92;;;;;;;2.06;80.15;94246.00;5087167;28;20116;-74
2021/11/28 01:40:30;;;;;;;5.28;2.60;;;;;;;2.03;80.51;94243.94;5086655;28;20044;-73
2021/11/28 01:43:01;;;;;;;4.45;2.83;;;;;;;1.98;80.51;94244.88;5087738;28;20059;-73
2021/11/28 01:45:31;;;;;;;5.13;3.05;;;;;;;1.97;80.86;94239.84;5086619;28;20057;-72
2021/11/28 01:47:59;;;;;;;5.72;3.00;;;;;;;1.97;81.07;94251.38;5087229;28;20066;-73
2021/11/28 01:50:31;;;;;;;5.28;2.88;;;;;;;1.95;80.88;94256.25;5086833;28;20043;-73
2021/11/28 01:52:57;;;;;;;5.00;2.90;;;;;;;1.99;81.21;94251.06;5087217;28;20065;-73
2021/11/28 01:55:26;;;;;;;5.28;2.80;;;;;;;1.98;80.90;94261.00;5087214;28;20048;-73
2021/11/28 01:57:53;;;;;;;4.30;2.85;;;;;;;2.00;80.83;94263.38;5087446;28;20826;-73
2021/11/28 02:00:25;;;;;;;6.20;3.40;;;;;;;2.00;81.04;94266.06;5087556;28;20052;-73
2021/11/28 02:02:52;;;;;;;6.32;3.28;;;;;;;1.97;80.82;94269.38;5087005;28;20052;-73
2021/11/28 02:05:20;;;;;;;4.65;2.63;;;;;;;1.93;81.25;94266.53;5089898;28;20075;-73
2021/11/28 02:07:48;;;;;;;4.60;2.83;;;;;;;1.88;81.34;94255.13;5090417;28;20514;-73
2021/11/28 02:10:16;;;;;;;4.72;2.88;;;;;;;1.85;81.93;94255.78;5090359;28;20044;-73
2021/11/28 02:12:44;;;;;;;4.95;2.97;;;;;;;1.83;81.90;94264.94;5090833;28;20047;-73
2021/11/28 02:15:11;;;;;;;4.28;2.70;;;;;;;1.77;82.00;94268.06;5089994;28;20052;-73
2021/11/28 02:17:39;;;;;;;5.72;2.72;;;;;;;1.76;82.23;94253.88;5090809;28;20055;-73
2021/11/28 02:20:07;;;;;;;5.68;2.55;;;;;;;1.75;82.17;94260.34;5090543;28;20040;-73
2021/11/28 02:22:38;;;;;;;6.18;3.20;;;;;;;1.79;82.40;94258.63;5091445;28;20055;-73
2021/11/28 02:25:05;;;;;;;4.53;2.65;;;;;;;1.80;82.06;94264.78;5089550;28;20051;-73
2021/11/28 02:27:32;;;;;;;4.50;2.60;;;;;;;1.85;82.24;94261.16;5090649;28;20048;-73
2021/11/28 02:29:59;;;;;;;5.22;3.00;;;;;;;1.85;82.02;94250.41;5090050;28;20052;-73
2021/11/28 02:32:25;;;;;;;6.32;3.10;;;;;;;1.83;82.34;94246.16;5089911;28;20051;-73
2021/11/28 02:34:52;;;;;;;5.90;2.90;;;;;;;1.86;82.40;94247.41;5090323;28;20051;-73
2021/11/28 02:37:19;;;;;;;6.50;3.33;;;;;;;1.88;81.95;94244.41;5089447;28;20055;-73
2021/11/28 02:39:47;;;;;;;6.28;2.80;;;;;;;1.90;81.86;94247.56;5090486;28;20048;-73
2021/11/28 02:42:17;;;;;;;8.90;2.40;;;;;;;1.88;81.81;94244.41;5087616;28;20388;-73
2021/11/28 02:44:43;;;;;;;3.15;2.10;;;;;;;1.83;81.09;94227.38;5074276;28;20517;-73
2021/11/28 02:47:10;;;;;;;4.60;2.30;;;;;;;1.77;81.22;94223.25;5089402;28;20040;-72
2021/11/28 02:49:36;;;;;;;3.38;2.50;;;;;;;1.75;81.56;94222.78;5090635;28;20055;-73
2021/11/28 02:52:04;;;;;;;3.78;2.40;;;;;;;1.73;82.06;94222.31;5089387;28;20040;-72
2021/11/28 02:54:30;;;;;;;5.97;2.65;;;;;;;1.72;81.86;94231.47;5090345;28;20047;-73
2021/11/28 02:56:58;;;;;;;5.75;2.20;;;;;;;1.70;82.24;94238.22;5089886;28;20502;-73
2021/11/28 02:59:25;;;;;;;4.00;2.30;;;;;;;1.67;82.44;94230.81;5089490;28;20040;-73
2021/11/28 03:01:51;;;;;;;3.20;1.98;;;;;;;1.61;82.90;94230.16;5090142;28;20040;-73
2021/11/28 03:04:18;;;;;;;3.95;2.05;;;;;;;1.61;83.05;94227.47;5088841;28;20051;-73
2021/11/28 03:06:44;;;;;;;2.75;1.73;;;;;;;1.58;83.21;94228.13;5090243;28;20075;-73
2021/11/28 03:09:11;;;;;;;2.72;1.80;;;;;;;1.60;83.40;94228.59;5088596;28;20048;-74
2021/11/28 03:11:37;;;;;;;3.78;1.98;;;;;;;1.60;83.45;94225.13;5090260;28;20044;-73
2021/11/28 03:14:05;;;;;;;4.88;1.85;;;;;;;1.62;83.59;94222.91;5088611;28;20432;-73
2021/11/28 03:16:32;;;;;;;3.17;2.20;;;;;;;1.68;83.59;94222.47;5089508;28;20051;-73
2021/11/28 03:18:58;;;;;;;4.25;2.05;;;;;;;1.70;83.44;94217.56;5089390;28;20047;-72
2021/11/28 03:21:27;;;;;;;5.93;1.80;;;;;;;1.72;83.34;94215.38;5089223;28;20124;-73
2021/11/28 03:23:56;;;;;;;4.03;1.80;;;;;;;1.74;83.37;94220.41;5089518;28;20419;-73
2021/11/28 03:26:25;;;;;;;2.95;1.73;;;;;;;1.73;83.26;94208.88;5088481;28;20052;-72
2021/11/28 03:28:54;;;;;;;3.63;2.00;;;;;;;1.74;82.99;94207.78;5089534;28;20044;-73
2021/11/28 03:31:23;;;;;;;3.55;1.80;;;;;;;1.74;83.62;94202.41;5087913;28;20063;-73
2021/11/28 03:33:50;;;;;;;3.97;2.15;;;;;;;1.71;83.63;94205.72;5089479;28;20517;-73
2021/11/28 03:36:20;;;;;;;6.88;2.95;;;;;;;1.70;83.78;94212.19;5087906;28;20056;-73
2021/11/28 03:38:47;;;;;;;6.07;1.95;;;;;;;1.66;83.56;94216.59;5089318;28;20669;-73
2021/11/28 03:41:15;;;;;;;3.80;2.10;;;;;;;1.72;84.01;94210.00;5088400;28;20040;-73
2021/11/28 03:43:43;;;;;;;4.35;2.15;;;;;;;1.73;83.93;94200.06;5086898;28;20048;-73
2021/11/28 03:46:09;;;;;;;3.80;2.30;;;;;;;1.80;83.88;94206.53;5088631;28;20055;-73
2021/11/28 03:48:38;;;;;;;4.57;2.22;;;;;;;1.84;83.61;94217.41;5088197;28;20048;-73
2021/11/28 03:51:05;;;;;;;3.60;2.33;;;;;;;1.88;83.38;94201.47;5088689;28;20036;-72
2021/11/28 03:53:32;;;;;;;5.55;2.20;;;;;;;1.86;83.27;94192.94;5088132;28;20130;-73
2021/11/28 03:56:01;;;;;;;4.80;2.30;;;;;;;1.87;83.34;94200.69;5089359;28;20040;-72
2021/11/28 03:58:28;;;;;;;3.45;2.20;;;;;;;1.90;83.20;94205.44;5088124;28;20044;-73
2021/11/28 04:00:55;;;;;;;4.10;2.10;;;;;;;1.93;82.79;94199.44;5088987;28;20127;-73
2021/11/28 04:03:22;;;;;;;3.60;2.13;;;;;;;1.93;82.83;94204.00;5087689;28;20054;-73
2021/11/28 04:05:50;;;;;;;4.78;2.50;;;;;;;1.95;82.79;94201.81;5088452;28;20051;-73
2021/11/28 04:08:16;;;;;;;5.32;2.22;;;;;;;1.93;82.46;94199.44;5087995;28;20079;-73
2021/11/28 04:10:43;;;;;;;4.75;1.90;;;;;;;1.95;82.65;94199.91;5088778;28;20044;-73
2021/11/28 04:13:10;;;;;;;3.45;2.10;;;;;;;1.97;82.98;94205.72;5088183;28;20050;-73
2021/11/28 04:15:37;;;;;;;3.95;2.25;;;;;;;2.02;83.08;94196.72;5087981;28;20052;-73
2021/11/28 04:18:04;;;;;;;4.35;2.60;;;;;;;2.07;83.12;94188.53;5088608;28;20048;-72
2021/11/28 04:20:30;;;;;;;6.30;2.45;;;;;;;2.13;82.89;94184.56;5088779;28;20050;-73
2021/11/28 04:22:58;;;;;;;3.53;2.30;;;;;;;2.17;82.60;94188.19;5088947;28;20071;-73
2021/11/28 04:25:25;;;;;;;3.55;2.08;;;;;;;2.23;82.61;94178.88;5088664;28;20055;-73
2021/11/28 04:27:51;;;;;;;3.08;2.00;;;;;;;2.29;82.42;94174.13;5087372;28;20044;-73
2021/11/28 04:30:18;;;;;;;4.03;2.30;;;;;;;2.33;82.20;94170.47;5087591;28;20052;-73
2021/11/28 04:32:44;;;;;;;4.22;2.30;;;;;;;2.36;82.10;94179.81;5087882;28;20048;-73
2021/11/28 04:35:12;;;;;;;5.25;2.50;;;;;;;2.39;81.85;94183.75;5087737;28;20052;-73
2021/11/28 04:37:39;;;;;;;4.55;2.30;;;;;;;2.44;81.51;94186.25;5087670;28;20701;-73
2021/11/28 04:40:09;;;;;;;4.05;2.40;;;;;;;2.43;81.36;94185.47;5088194;28;20055;-73
2021/11/28 04:42:35;;;;;;;5.57;2.47;;;;;;;2.45;81.32;94190.53;5087427;28;20102;-73
2021/11/28 04:45:02;;;;;;;3.17;2.13;;;;;;;2.48;81.54;94192.59;5088028;28;20051;-72
2021/11/28 04:47:28;;;;;;;3.92;2.40;;;;;;;2.51;81.26;94189.28;5087332;28;20538;-73
2021/11/28 04:49:55;;;;;;;5.43;2.67;;;;;;;2.54;81.12;94196.66;5087882;28;20043;-73
2021/11/28 04:52:21;;;;;;;3.78;2.30;;;;;;;2.54;81.30;94204.72;5087210;28;20056;-73
2021/11/28 04:54:48;;;;;;;4.53;2.17;;;;;;;2.58;80.62;94203.00;5087550;28;20044;-73
2021/11/28 04:57:16;;;;;;;3.90;2.50;;;;;;;2.53;79.76;94200.47;5087749;28;20064;-74
2021/11/28 04:59:43;;;;;;;3.78;2.15;;;;;;;2.50;79.91;94198.41;5087536;28;20040;-73
2021/11/28 05:02:09;;;;;;;4.50;2.33;;;;;;;2.45;80.06;94196.69;5087802;28;20498;-73
2021/11/28 05:04:36;;;;;;;5.10;2.58;;;;;;;2.44;80.43;94191.63;5087242;28;20719;-73
2021/11/28 05:07:02;;;;;;;4.28;2.63;;;;;;;2.39;80.51;94195.28;5088081;28;20044;-73
2021/11/28 05:09:29;;;;;;;7.10;2.70;;;;;;;2.36;80.86;94198.63;5086904;28;20044;-74
2021/11/28 05:11:55;;;;;;;4.25;2.67;;;;;;;2.32;81.10;94203.81;5088050;28;20499;-73
2021/11/28 05:14:23;;;;;;;5.18;3.00;;;;;;;2.30;81.20;94211.41;5086440;28;20067;-73
2021/11/28 05:16:50;;;;;;;4.78;2.67;;;;;;;2.28;81.35;94208.25;5087484;28;20051;-74
2021/11/28 05:19:16;;;;;;;5.88;3.15;;;;;;;2.23;81.52;94197.66;5087100;28;20056;-73
2021/11/28 05:21:44;;;;;;;4.70;2.90;;;;;;;2.23;81.89;94197.66;5087337;28;20043;-73
2021/11/28 05:24:10;;;;;;;5.95;3.10;;;;;;;2.27;81.73;94198.63;5087373;28;20055;-73
2021/11/28 05:26:38;;;;;;;4.78;2.60;;;;;;;2.26;81.13;94202.41;5087143;28;20040;-73
2021/11/28 05:29:05;;;;;;;5.70;3.00;;;;;;;2.24;81.45;94209.19;5087430;28;20044;-74
2021/11/28 05:31:33;;;;;;;6.10;3.17;;;;;;;2.19;81.51;94212.03;5086743;28;20669;-73
2021/11/28 05:34:00;;;;;;;8.10;2.92;;;;;;;2.21;81.70;94205.25;5087982;28;20052;-73
2021/11/28 05:36:26;;;;;;;4.22;2.78;;;;;;;2.20;81.85;94202.91;5087612;28;20487;-74
2021/11/28 05:38:53;;;;;;;5.85;3.00;;;;;;;2.18;81.38;94205.88;5087648;28;20040;-73
2021/11/28 05:41:20;;;;;;;6.28;2.80;;;;;;;2.19;81.54;94207.47;5090688;28;20055;-73
2021/11/28 05:43:49;;;;;;;5.63;3.00;;;;;;;2.16;81.18;94205.41;5090921;28;20051;-73
2021/11/28 05:46:15;;;;;;;4.90;2.70;;;;;;;2.15;81.29;94214.59;5090898;28;20135;-73
2021/11/28 05:48:43;;;;;;;4.32;2.80;;;;;;;2.11;81.49;94210.16;5090488;28;20048;-73
2021/11/28 05:51:10;;;;;;;6.63;2.97;;;;;;;2.10;81.62;94225.47;5091363;28;20051;-72
2021/11/28 05:53:37;;;;;;;5.15;3.30;;;;;;;2.12;81.66;94227.84;5090902;28;20469;-73
2021/11/28 05:56:05;;;;;;;8.15;3.00;;;;;;;2.11;81.48;94231.63;5091366;28;20503;-72
2021/11/28 05:58:31;;;;;;;3.70;2.42;;;;;;;2.09;81.71;94226.59;5090831;28;20048;-73
2021/11/28 06:00:58;;;;;;;5.68;3.03;;;;;;;2.12;81.51;94227.84;5091395;28;20048;-73
2021/11/28 06:03:24;;;;;;;5.35;3.03;;;;;;;2.09;81.31;94229.28;5090608;28;20052;-74
2021/11/28 06:05:53;;;;;;;5.40;2.90;;;;;;;2.11;81.63;94229.75;5090928;28;20048;-73
2021/11/28 06:08:20;;;;;;;6.40;3.60;;;;;;;2.12;81.48;94227.84;5090547;28;20692;-73
2021/11/28 06:10:47;;;;;;;4.85;2.88;;;;;;;2.02;81.16;94223.56;5090694;28;20044;-73
2021/11/28 06:13:13;;;;;;;5.13;2.75;;;;;;;1.97;81.52;94226.41;5090570;28;20048;-73
2021/11/28 06:15:40;;;;;;;5.13;3.35;;;;;;;1.93;81.50;94220.91;5090231;28;20055;-73
2021/11/28 06:18:06;;;;;;;7.22;3.20;;;;;;;1.89;81.71;94219.94;5090985;28;20044;-73
2021/11/28 06:20:33;;;;;;;4.57;3.25;;;;;;;1.87;81.90;94216.00;5090256;28;20048;-73
2021/11/28 06:23:01;;;;;;;5.10;2.90;;;;;;;1.89;81.96;94216.47;5090944;28;20047;-73
2021/11/28 06:25:27;;;;;;;6.25;3.05;;;;;;;1.89;82.26;94222.63;5089753;28;20052;-73
2021/11/28 06:27:54;;;;;;;6.90;3.47;;;;;;;1.90;81.98;94226.09;5090760;28;20059;-73
2021/11/28 06:30:20;;;;;;;5.82;3.67;;;;;;;1.90;82.23;94220.75;5090116;28;20051;-73
2021/11/28 06:32:47;;;;;;;5.78;3.30;;;;;;;1.91;82.01;94230.38;5090193;28;20063;-73
2021/11/28 06:35:14;;;;;;;4.57;3.35;;;;;;;1.91;82.19;94233.84;5090160;28;20055;-73
2021/11/28 06:37:41;;;;;;;7.28;3.60;;;;;;;1.93;82.03;94233.50;5089977;28;20048;-73
2021/11/28 06:40:10;;;;;;;9.00;4.00;;;;;;;1.94;82.13;94229.75;5090306;28;20048;-72
2021/11/28 06:42:36;;;;;;;6.65;4.03;;;;;;;1.97;82.31;94237.16;5088786;28;20048;-73
2021/11/28 06:45:04;;;;;;;7.38;4.03;;;;;;;1.98;82.43;94233.34;5070099;28;20048;-72
2021/11/28 06:47:30;;;;;;;6.82;4.15;;;;;;;2.02;82.39;94234.31;5069540;28;20045;-73
2021/11/28 06:49:56;;;;;;;7.07;3.92;;;;;;;2.04;82.00;94237.50;5069815;28;20051;-73
2021/11/28 06:52:23;;;;;;;5.03;3.50;;;;;;;1.99;82.05;94245.69;5068120;28;20056;-73
2021/11/28 06:54:49;;;;;;;7.50;3.95;;;;;;;1.94;82.24;94237.81;5069592;28;20459;-73
2021/11/28 06:57:17;;;;;;;5.65;3.83;;;;;;;1.91;82.79;94233.06;5069172;28;20040;-73
2021/11/28 06:59:44;;;;;;;7.70;4.20;;;;;;;1.89;82.95;94236.06;5069380;28;20047;-73
2021/11/28 07:02:10;;;;;;;9.02;4.68;;;;;;;1.85;83.16;94239.69;5069595;28;20048;-73
2021/11/28 07:04:37;;;;;;;8.45;4.10;;;;;;;1.76;83.74;94240.44;5068954;28;20044;-73
2021/11/28 07:07:04;;;;;;;6.65;4.30;;;;;;;1.71;84.15;94245.97;5069514;28;20051;-72
2021/11/28 07:09:30;;;;;;;8.88;3.88;;;;;;;1.67;84.49;94252.25;5068774;28;20052;-73
2021/11/28 07:11:57;;;;;;;6.13;4.05;;;;;;;1.65;84.80;94254.47;5069563;28;20507;-73
2021/11/28 07:14:25;;;;;;;9.00;4.07;;;;;;;1.67;85.25;94255.75;5084740;28;20411;-73
2021/11/28 07:16:51;;;;;;;14.85;4.30;;;;;;;1.68;85.20;94261.91;5089570;28;20649;-73
2021/11/28 07:19:18;;;;;;;6.57;4.47;;;;;;;1.68;85.25;94257.34;5089230;28;20133;-73
2021/11/28 07:21:44;;;;;;;11.23;4.57;;;;;;;1.71;85.05;94262.06;5089231;28;20048;-73
2021/11/28 07:24:11;;;;;;;7.70;4.63;;;;;;;1.75;85.18;94265.69;5089218;28;20467;-73
2021/11/28 07:26:37;;;;;;;9.25;4.65;;;;;;;1.79;85.26;94258.63;5088920;28;20052;-73
2021/11/28 07:29:04;;;;;;;7.25;4.70;;;;;;;1.83;85.08;94256.88;5089448;28;20044;-72
2021/11/28 07:31:32;;;;;;;10.07;5.05;;;;;;;1.90;85.20;94269.06;5089468;28;20097;-73
2021/11/28 07:33:58;;;;;;;8.75;4.45;;;;;;;1.93;85.22;94263.84;5089766;28;20048;-73
2021/11/28 07:36:25;;;;;;;9.82;4.60;;;;;;;2.00;85.25;94274.13;5088463;28;20051;-73
2021/11/28 07:38:51;;;;;;;7.50;4.15;;;;;;;2.04;84.95;94267.03;5089357;28;20044;-73
2021/11/28 07:41:18;;;;;;;7.75;4.63;;;;;;;2.06;84.95;94267.47;5088494;28;20044;-73
2021/11/28 07:43:44;;;;;;;7.63;4.63;;;;;;;2.06;83.96;94267.47;5088708;28;20055;-73
2021/11/28 07:46:11;;;;;;;6.07;3.80;;;;;;;2.00;83.88;94268.75;5088581;28;20082;-73
2021/11/28 07:48:38;;;;;;;7.05;4.35;;;;;;;1.97;83.53;94264.78;5088434;28;20060;-73
2021/11/28 07:51:05;;;;;;;8.30;4.20;;;;;;;1.98;84.20;94262.88;5089031;28;20044;-74
2021/11/28 07:53:31;;;;;;;7.22;3.95;;;;;;;1.98;83.90;94252.94;5088272;28;20411;-73
2021/11/28 07:55:58;;;;;;;5.68;4.20;;;;;;;1.96;84.05;94262.41;5089264;28;20087;-73
2021/11/28 07:58:24;;;;;;;7.68;4.60;;;;;;;1.93;84.06;94263.84;5088711;28;20043;-73
2021/11/28 08:00:51;;;;;;;8.40;4.30;;;;;;;1.93;84.67;94254.97;5089195;28;20036;-73
2021/11/28 08:03:18;;;;;;;6.38;4.22;;;;;;;1.90;84.62;94263.69;5088004;28;20052;-73
2021/11/28 08:05:46;;;;;;;6.53;4.00;;;;;;;1.88;84.55;94269.38;5088602;28;20097;-73
2021/11/28 08:08:13;;;;;;;7.65;3.88;;;;;;;1.83;84.34;94264.94;5088065;28;20052;-73
2021/11/28 08:10:39;;;;;;;7.85;3.95;;;;;;;1.82;84.89;94279.44;5088155;28;20494;-73
2021/11/28 08:13:06;;;;;;;5.68;3.47;;;;;;;1.81;85.14;94277.88;5088137;28;20048;-73
2021/11/28 08:15:32;;;;;;;8.60;4.25;;;;;;;1.88;85.58;94271.25;5087946;28;20079;-73
2021/11/28 08:17:59;;;;;;;8.05;3.92;;;;;;;1.92;84.97;94278.34;5089102;28;20048;-73
2021/11/28 08:20:25;;;;;;;5.90;3.47;;;;;;;1.98;85.47;94270.94;5087393;28;20047;-73
2021/11/28 08:22:54;;;;;;;7.80;3.10;;;;;;;2.01;84.80;94278.38;5088768;28;20047;-73
2021/11/28 08:25:20;;;;;;;5.25;3.35;;;;;;;2.02;84.32;94271.91;5087268;28;20071;-73
2021/11/28 08:27:47;;;;;;;5.88;3.75;;;;;;;2.01;84.17;94273.00;5088211;28;20048;-73
2021/11/28 08:30:16;;;;;;;7.20;3.90;;;;;;;2.05;84.09;94274.75;5087316;28;20052;-73
2021/11/28 08:32:45;;;;;;;6.00;3.38;;;;;;;2.05;83.60;94276.66;5087817;28;20047;-73
2021/11/28 08:35:12;;;;;;;6.95;3.03;;;;;;;2.08;83.97;94276.00;5087878;28;20056;-73
2021/11/28 08:37:39;;;;;;;8.23;3.25;;;;;;;2.11;83.34;94270.00;5087780;28;20048;-73
2021/11/28 08:40:10;;;;;;;6.05;3.05;;;;;;;2.05;82.86;94272.06;5088230;28;20051;-73
2021/11/28 08:42:37;;;;;;;4.53;3.10;;;;;;;1.98;83.19;94270.94;5087271;28;20051;-73
2021/11/28 08:45:04;;;;;;;4.65;3.05;;;;;;;1.98;83.96;94285.16;5067481;28;20044;-73
2021/11/28 08:47:31;;;;;;;7.70;3.10;;;;;;;2.04;83.96;94280.44;5067081;28;20048;-73
2021/11/28 08:49:57;;;;;;;6.65;3.28;;;;;;;2.11;83.90;94279.97;5067596;28;20055;-74
2021/11/28 08:52:24;;;;;;;6.13;3.10;;;;;;;2.15;83.51;94278.25;5066842;28;20045;-73
2021/11/28 08:54:51;;;;;;;5.50;3.10;;;;;;;2.16;82.86;94280.59;5067392;28;20052;-73
2021/11/28 08:57:19;;;;;;;4.65;2.60;;;;;;;2.21;82.71;94285.03;5067136;28;20044;-73
2021/11/28 08:59:45;;;;;;;5.72;2.90;;;;;;;2.25;82.32;94286.78;5067024;28;20044;-73
2021/11/28 09:02:12;;;;;;;5.90;2.67;;;;;;;2.41;82.56;94294.34;5067757;28;20586;-73
2021/11/28 09:04:39;;;;;;;4.82;3.00;;;;;;;2.47;82.06;94295.78;5067039;28;20044;-73
2021/11/28 09:07:05;;;;;;;3.35;2.40;;;;;;;2.57;81.92;94298.13;5067362;28;20044;-73
2021/11/28 09:09:32;;;;;;;4.55;2.30;;;;;;;2.56;81.04;94304.63;5066932;28;20044;-73
2021/11/28 09:11:59;;;;;;;4.47;2.33;;;;;;;2.61;80.97;94309.84;5067881;28;20041;-73
2021/11/28 09:14:27;;;;;;;5.47;2.17;;;;;;;2.63;79.25;94306.84;5082627;28;20415;-73
2021/11/28 09:16:53;;;;;;;3.60;2.03;;;;;;;2.67;79.49;94303.19;5087515;28;20075;-73
2021/11/28 09:19:23;;;;;;;5.65;2.00;;;;;;;2.61;79.09;94302.56;5087205;28;20514;-73
2021/11/28 09:21:50;;;;;;;2.70;1.77;;;;;;;2.64;79.52;94303.81;5087218;28;20075;-73
2021/11/28 09:24:36;;;;;;;6.57;2.20;;;;;;;2.86;80.21;94302.84;5087409;28;20698;-73
2021/11/28 09:27:06;;;;;;;6.40;2.10;;;;;;;3.03;77.79;94299.34;5086741;28;20040;-72
2021/11/28 09:29:35;;;;;;;6.68;2.20;;;;;;;3.05;77.80;94297.13;5087929;28;20040;-73
2021/11/28 09:32:02;;;;;;;5.07;2.03;;;;;;;3.12;77.90;94292.03;5086579;28;20047;-72
2021/11/28 09:34:29;;;;;;;4.10;2.05;;;;;;;3.20;78.37;94288.53;5087719;28;20055;-73
2021/11/28 09:36:55;;;;;;;3.42;1.85;;;;;;;3.15;76.74;94291.41;5087319;28;20673;-73
2021/11/28 09:39:22;;;;;;;3.50;1.75;;;;;;;3.16;75.75;94290.28;5086843;28;20052;-73
2021/11/28 09:41:52;;;;;;;4.22;2.45;;;;;;;3.23;76.43;94287.88;5087442;28;20048;-73
2021/11/28 09:44:20;;;;;;;2.08;1.40;;;;;;;3.23;76.21;94295.94;5086120;28;20060;-74
2021/11/28 09:46:51;;;;;;;2.60;1.40;;;;;;;3.30;76.72;94285.50;5087848;28;20044;-73
2021/11/28 09:49:18;;;;;;;4.43;1.20;;;;;;;3.38;75.01;94279.28;5086040;28;20052;-73
2021/11/28 09:51:47;;;;;;;2.65;1.35;;;;;;;3.34;73.99;94278.38;5087675;28;20059;-73
2021/11/28 09:54:16;;;;;;;4.63;1.48;;;;;;;3.39;74.50;94286.25;5086596;28;20059;-73
2021/11/28 09:56:44;;;;;;;3.63;1.38;;;;;;;3.39;73.51;94269.28;5087561;28;20052;-73
2021/11/28 09:59:10;;;;;;;3.72;1.17;;;;;;;3.45;73.83;94278.00;5086591;28;20048;-73
2021/11/28 10:01:38;;;;;;;1.88;1.10;;;;;;;3.47;72.91;94278.47;5087033;28;20032;-73
2021/11/28 10:04:07;;;;;;;2.65;1.30;;;;;;;3.35;71.58;94274.56;5086937;28;20094;-72
2021/11/28 10:06:34;;;;;;;3.17;1.33;;;;;;;3.24;73.00;94276.03;5086482;28;20036;-73
2021/11/28 10:09:04;;;;;;;3.60;1.38;;;;;;;3.20;74.34;94277.78;5087376;28;20434;-73
2021/11/28 10:12:20;;;;;;;2.42;1.30;;;;;;;3.15;74.53;94275.25;5086370;28;20109;-73
2021/11/28 10:14:50;;;;;;;2.53;1.10;;;;;;;2.99;73.96;94276.88;5003549;28;20473;-73
2021/11/28 10:17:19;;;;;;;3.45;1.33;;;;;;;2.97;74.01;94271.03;5079388;28;20044;-73
2021/11/28 10:19:47;;;;;;;1.48;0.95;;;;;;;2.98;74.09;94272.63;5086842;28;20048;-73
2021/11/28 10:22:14;;;;;;;5.22;1.40;;;;;;;2.99;75.76;94268.81;5087424;28;20059;-73
2021/11/28 10:25:03;;;;;;;1.55;0.90;;;;;;;3.02;76.48;94278.91;5086536;28;20050;-73
2021/11/28 10:27:40;;;;;;;2.40;0.88;;;;;;;3.14;75.31;94273.69;5090046;28;20054;-73
2021/11/28 10:30:09;;;;;;;2.13;1.08;;;;;;;3.10;74.13;94273.53;5090031;28;20051;-72
2021/11/28 10:32:41;;;;;;;2.22;1.00;;;;;;;3.09;73.75;94277.34;5090507;28;20146;-73
2021/11/28 10:35:11;;;;;;;2.92;1.10;;;;;;;3.05;73.89;94270.22;5090319;28;20040;-72
2021/11/28 10:37:41;;;;;;;2.50;1.20;;;;;;;3.02;74.18;94271.63;5089796;28;20051;-73
2021/11/28 10:40:09;;;;;;;4.28;0.98;;;;;;;3.01;74.40;94261.22;5090517;28;20079;-73
2021/11/28 10:42:37;;;;;;;2.55;1.15;;;;;;;3.00;74.02;94267.72;5089517;28;20051;-73
2021/11/28 10:45:07;;;;;;;2.53;1.08;;;;;;;2.92;73.31;94261.22;5069897;28;20644;-73
2021/11/28 10:47:39;;;;;;;4.07;1.00;;;;;;;2.92;73.87;94260.44;5069633;28;20056;-73
2021/11/28 10:50:18;;;;;;;2.97;1.25;;;;;;;2.95;74.61;94255.22;5069029;28;20044;-73
2021/11/28 10:52:47;;;;;;;2.85;1.10;;;;;;;3.03;74.20;94261.69;5070117;28;20049;-73
2021/11/28 10:55:17;;;;;;;2.90;1.17;;;;;;;3.07;73.30;94268.00;5068991;28;20052;-73
2021/11/28 10:57:45;;;;;;;2.75;1.10;;;;;;;3.03;72.29;94264.38;5070160;28;20051;-73
2021/11/28 11:00:13;;;;;;;3.20;1.00;;;;;;;2.97;73.02;94262.97;5068585;28;20523;-72
2021/11/28 11:02:42;;;;;;;2.08;1.08;;;;;;;2.87;73.10;94259.53;5070222;28;20071;-73
2021/11/28 11:05:12;;;;;;;2.78;0.90;;;;;;;2.82;73.17;94251.63;5068434;28;20507;-73
2021/11/28 11:07:46;;;;;;;2.42;0.93;;;;;;;2.81;73.63;94254.63;5069732;28;20086;-73
2021/11/28 11:10:17;;;;;;;2.58;1.20;;;;;;;2.86;75.53;94251.75;5068687;28;20515;-72
2021/11/28 11:12:44;;;;;;;2.53;1.27;;;;;;;2.94;76.09;94239.41;5071405;28;20703;-73
2021/11/28 11:15:13;;;;;;;3.88;1.08;;;;;;;3.05;77.04;94240.66;5089296;28;20058;-73
2021/11/28 11:17:56;;;;;;;4.13;1.17;;;;;;;3.07;74.74;94243.78;5089060;28;20150;-73
2021/11/28 11:20:27;;;;;;;2.63;1.27;;;;;;;3.08;75.51;94248.06;5089830;28;20491;-73
2021/11/28 11:22:55;;;;;;;3.47;1.30;;;;;;;3.06;75.85;94244.91;5088841;28;20067;-73
2021/11/28 11:25:32;;;;;;;7.60;1.17;;;;;;;2.97;75.19;94247.63;5089053;28;20048;-73
2021/11/28 11:28:11;;;;;;;2.05;1.10;;;;;;;2.93;75.84;94244.00;5089119;28;20052;-73
2021/11/28 11:30:38;;;;;;;2.15;1.10;;;;;;;2.90;75.15;94239.25;5088694;28;20044;-73
2021/11/28 11:33:06;;;;;;;3.10;1.20;;;;;;;2.89;75.84;94240.38;5089162;28;20048;-73
2021/11/28 11:35:37;;;;;;;2.42;1.20;;;;;;;2.88;76.93;94238.81;5088656;28;20766;-73
2021/11/28 11:38:07;;;;;;;3.40;1.23;;;;;;;2.93;77.10;94240.53;5089038;28;20491;-72
2021/11/28 11:40:34;;;;;;;2.83;1.20;;;;;;;3.04;76.65;94241.75;5088673;28;20051;-73
2021/11/28 11:43:01;;;;;;;4.60;1.60;;;;;;;3.09;76.92;94234.31;5089014;28;20052;-72
2021/11/28 11:45:32;;;;;;;3.20;1.50;;;;;;;3.18;77.06;94246.91;5088437;28;20494;-73